createdAt,value
2022-10-18T00:01:03.731Z,97332.25
2022-10-18T00:02:35.507Z,97330.94
2022-10-18T00:04:07.254Z,97332.72
2022-10-18T00:05:38.985Z,97333.31
2022-10-18T00:07:10.715Z,97330.41
2022-10-18T00:08:42.500Z,97335.59
2022-10-18T00:10:15.535Z,97339.38
2022-10-18T00:11:47.473Z,97333.31
2022-10-18T00:13:19.335Z,97335.59
2022-10-18T00:14:51.149Z,97332.94
2022-10-18T00:16:23.087Z,97329.56
2022-10-18T00:17:54.859Z,97337.13
2022-10-18T00:19:29.184Z,97339.84
2022-10-18T00:21:01.922Z,97335.78
2022-10-18T00:22:34.179Z,97334.81
2022-10-18T00:24:06.410Z,97334.00
2022-10-18T00:25:39.541Z,97337.81
2022-10-18T00:27:11.319Z,97345.03
2022-10-18T00:28:43.180Z,97345.16
2022-10-18T00:30:14.981Z,97336.81
2022-10-18T00:31:46.673Z,97341.41
2022-10-18T00:33:18.401Z,97344.53
2022-10-18T00:34:50.213Z,97348.88
2022-10-18T00:36:21.903Z,97341.81
2022-10-18T00:37:53.711Z,97337.56
2022-10-18T00:39:25.524Z,97336.59
2022-10-18T00:40:58.654Z,97334.16
2022-10-18T00:42:31.954Z,97341.63
2022-10-18T00:44:05.006Z,97328.94
2022-10-18T00:45:36.685Z,97335.47
2022-10-18T00:47:09.366Z,97339.25
2022-10-18T00:48:41.139Z,97329.72
2022-10-18T00:50:12.945Z,97330.56
2022-10-18T00:51:46.306Z,97318.91
2022-10-18T00:53:19.007Z,97318.06
2022-10-18T00:54:50.856Z,97321.00
2022-10-18T00:56:23.935Z,97325.78
2022-10-18T00:57:55.660Z,97322.41
2022-10-18T00:59:27.633Z,97319.91
2022-10-18T01:00:59.350Z,97323.00
2022-10-18T01:02:31.270Z,97328.16
2022-10-18T01:04:03.345Z,97332.22
2022-10-18T01:05:36.502Z,97339.09
2022-10-18T01:07:13.190Z,97351.03
2022-10-18T01:08:50.497Z,97349.97
2022-10-18T01:10:27.122Z,97352.75
2022-10-18T01:12:13.659Z,97352.22
2022-10-18T01:13:54.221Z,97355.88
2022-10-18T01:15:27.333Z,97346.81
2022-10-18T01:17:00.529Z,97357.06
2022-10-18T01:18:36.255Z,97345.31
2022-10-18T01:20:32.362Z,97354.75
2022-10-18T01:22:06.794Z,97348.75
2022-10-18T01:24:03.632Z,97356.16
2022-10-18T01:25:42.135Z,97354.91
2022-10-18T01:27:52.646Z,97351.06
2022-10-18T01:29:30.515Z,97349.94
2022-10-18T01:31:03.807Z,97344.50
2022-10-18T01:32:36.567Z,97344.63
2022-10-18T01:34:08.510Z,97346.09
2022-10-18T01:35:42.357Z,97336.44
2022-10-18T01:37:14.868Z,97348.03
2022-10-18T01:38:47.381Z,97336.56
2022-10-18T01:40:20.407Z,97338.47
2022-10-18T01:41:52.150Z,97335.69
2022-10-18T01:43:23.857Z,97338.38
2022-10-18T01:44:55.549Z,97336.97
2022-10-18T01:46:28.696Z,97341.81
2022-10-18T01:48:00.448Z,97337.13
2022-10-18T01:49:33.351Z,97330.13
2022-10-18T01:51:05.381Z,97337.28
2022-10-18T01:52:47.944Z,97339.84
2022-10-18T01:54:21.814Z,97348.97
2022-10-18T01:56:02.544Z,97349.72
2022-10-18T01:57:37.051Z,97347.53
2022-10-18T01:59:17.434Z,97338.28
2022-10-18T02:00:50.065Z,97343.28
2022-10-18T02:02:32.243Z,97339.47
2022-10-18T02:04:08.136Z,97338.91
2022-10-18T02:05:41.125Z,97344.94
2022-10-18T02:07:16.887Z,97336.97
2022-10-18T02:08:50.559Z,97341.59
2022-10-18T02:10:24.927Z,97327.56
2022-10-18T02:11:56.707Z,97320.63
2022-10-18T02:13:30.207Z,97323.88
2022-10-18T02:15:02.122Z,97329.03
2022-10-18T02:16:36.030Z,97344.94
2022-10-18T02:18:11.102Z,97341.50
2022-10-18T02:19:44.182Z,97347.66
2022-10-18T02:21:17.603Z,97347.31
2022-10-18T02:22:49.471Z,97339.59
2022-10-18T02:24:21.220Z,97345.25
2022-10-18T02:25:52.976Z,97345.63
2022-10-18T02:27:24.733Z,97343.03
2022-10-18T02:28:56.524Z,97346.16
2022-10-18T02:30:29.491Z,97347.53
2022-10-18T02:32:04.436Z,97343.16
2022-10-18T02:33:39.521Z,97345.50
2022-10-18T02:35:11.779Z,97345.84
2022-10-18T02:36:45.525Z,97341.00
2022-10-18T02:38:17.396Z,97334.16
2022-10-18T02:39:49.426Z,97340.84
2022-10-18T02:41:24.707Z,97337.22
2022-10-18T02:42:57.193Z,97333.38
2022-10-18T02:44:28.988Z,97339.81
2022-10-18T02:46:00.787Z,97348.16
2022-10-18T02:47:34.457Z,97341.84
2022-10-18T02:49:07.796Z,97345.22
2022-10-18T02:50:39.466Z,97345.41
2022-10-18T02:52:11.630Z,97346.41
2022-10-18T02:53:43.381Z,97346.41
2022-10-18T02:55:15.236Z,97336.94
2022-10-18T02:56:47.089Z,97337.81
2022-10-18T02:58:18.837Z,97341.84
2022-10-18T02:59:50.542Z,97339.84
2022-10-18T03:01:22.329Z,97351.47
2022-10-18T03:02:54.778Z,97354.81
2022-10-18T03:06:00.562Z,97372.06
2022-10-18T03:07:32.559Z,97367.94
2022-10-18T03:09:05.011Z,97373.75
2022-10-18T03:10:36.776Z,97366.81
2022-10-18T03:12:08.576Z,97369.94
2022-10-18T03:13:42.418Z,97360.13
2022-10-18T03:15:14.255Z,97359.69
2022-10-18T03:16:45.974Z,97354.72
2022-10-18T03:18:17.715Z,97353.91
2022-10-18T03:19:50.744Z,97354.03
2022-10-18T03:21:22.564Z,97365.53
2022-10-18T03:22:54.322Z,97366.25
2022-10-18T03:24:26.095Z,97360.31
2022-10-18T03:25:57.837Z,97363.78
2022-10-18T03:27:29.814Z,97361.34
2022-10-18T03:29:01.816Z,97362.66
2022-10-18T03:30:33.666Z,97361.94
2022-10-18T03:32:05.818Z,97368.59
2022-10-18T03:33:37.751Z,97358.63
2022-10-18T03:35:11.147Z,97360.97
2022-10-18T03:36:42.850Z,97359.25
2022-10-18T03:38:14.621Z,97359.59
2022-10-18T03:39:46.488Z,97363.97
2022-10-18T03:41:18.310Z,97352.34
2022-10-18T03:42:51.884Z,97357.56
2022-10-18T03:44:23.724Z,97361.03
2022-10-18T03:46:01.202Z,97362.84
2022-10-18T03:47:32.913Z,97362.84
2022-10-18T03:49:04.703Z,97358.09
2022-10-18T03:50:37.767Z,97369.16
2022-10-18T03:52:09.566Z,97362.78
2022-10-18T03:53:41.356Z,97362.47
2022-10-18T03:55:13.090Z,97369.81
2022-10-18T03:56:44.787Z,97371.94
2022-10-18T03:58:16.656Z,97375.84
2022-10-18T03:59:48.878Z,97373.16
2022-10-18T04:01:20.704Z,97368.47
2022-10-18T04:02:55.071Z,97373.50
2022-10-18T04:04:27.781Z,97368.25
2022-10-18T04:06:03.430Z,97362.34
2022-10-18T04:09:09.483Z,97358.88
2022-10-18T04:10:42.101Z,97368.72
2022-10-18T04:12:13.881Z,97362.06
2022-10-18T04:13:45.800Z,97368.03
2022-10-18T04:15:17.739Z,97364.81
2022-10-18T04:16:49.518Z,97364.69
2022-10-18T04:18:21.270Z,97358.63
2022-10-18T04:19:53.001Z,97346.47
2022-10-18T04:21:26.041Z,97357.44
2022-10-18T04:22:58.173Z,97362.91
2022-10-18T04:24:29.866Z,97362.91
2022-10-18T04:26:01.505Z,97363.56
2022-10-18T04:27:33.326Z,97365.13
2022-10-18T04:29:05.335Z,97369.44
2022-10-18T04:30:37.015Z,97373.72
2022-10-18T04:32:08.678Z,97378.28
2022-10-18T04:33:40.422Z,97379.75
2022-10-18T04:35:12.092Z,97384.94
2022-10-18T04:36:45.144Z,97384.00
2022-10-18T04:38:16.885Z,97381.97
2022-10-18T04:39:51.362Z,97384.97
2022-10-18T04:41:25.440Z,97383.66
2022-10-18T04:42:57.095Z,97387.53
2022-10-18T04:44:28.749Z,97382.03
2022-10-18T04:46:00.595Z,97385.75
2022-10-18T04:47:32.506Z,97378.78
2022-10-18T04:49:04.415Z,97385.03
2022-10-18T04:50:36.032Z,97385.09
2022-10-18T04:52:09.220Z,97383.41
2022-10-18T04:53:40.863Z,97382.44
2022-10-18T04:55:12.517Z,97385.03
2022-10-18T04:56:44.132Z,97386.75
2022-10-18T04:58:16.035Z,97377.63
2022-10-18T04:59:47.754Z,97375.97
2022-10-18T05:01:19.444Z,97381.06
2022-10-18T05:02:55.753Z,97372.78
2022-10-18T05:04:27.606Z,97372.72
2022-10-18T05:06:03.053Z,97376.38
2022-10-18T05:07:36.613Z,97374.16
2022-10-18T05:09:08.297Z,97380.81
2022-10-18T05:10:39.939Z,97378.13
2022-10-18T05:12:11.609Z,97381.53
2022-10-18T05:13:45.951Z,97385.38
2022-10-18T05:15:18.966Z,97374.00
2022-10-18T05:16:50.587Z,97376.91
2022-10-18T05:18:22.458Z,97375.38
2022-10-18T05:19:54.090Z,97377.38
2022-10-18T05:21:25.741Z,97384.19
2022-10-18T05:22:58.861Z,97386.84
2022-10-18T05:24:30.579Z,97389.34
2022-10-18T05:26:03.299Z,97389.88
2022-10-18T05:27:34.969Z,97386.78
2022-10-18T05:29:06.736Z,97391.31
2022-10-18T05:30:38.870Z,97394.66
2022-10-18T05:32:10.581Z,97388.69
2022-10-18T05:33:42.340Z,97388.53
2022-10-18T05:35:14.533Z,97384.63
2022-10-18T05:36:46.460Z,97385.44
2022-10-18T05:38:19.561Z,97380.97
2022-10-18T05:39:51.272Z,97390.31
2022-10-18T05:41:23.004Z,97391.69
2022-10-18T05:42:54.642Z,97393.25
2022-10-18T05:44:26.455Z,97383.28
2022-10-18T05:45:58.173Z,97384.38
2022-10-18T05:47:29.903Z,97390.97
2022-10-18T05:49:01.782Z,97389.09
2022-10-18T05:50:36.682Z,97383.75
2022-10-18T05:52:11.432Z,97397.34
2022-10-18T05:53:44.616Z,97394.53
2022-10-18T05:55:16.454Z,97394.91
2022-10-18T05:56:48.287Z,97395.63
2022-10-18T05:58:21.497Z,97394.38
2022-10-18T05:59:53.261Z,97391.97
2022-10-18T06:01:25.010Z,97393.22
2022-10-18T06:03:00.212Z,97393.84
2022-10-18T06:04:32.385Z,97398.13
2022-10-18T06:06:05.377Z,97396.91
2022-10-18T06:07:37.164Z,97402.47
2022-10-18T06:09:10.282Z,97399.25
2022-10-18T06:10:41.943Z,97399.34
2022-10-18T06:12:13.546Z,97406.72
2022-10-18T06:13:46.815Z,97402.03
2022-10-18T06:15:18.800Z,97398.16
2022-10-18T06:16:50.604Z,97400.91
2022-10-18T06:18:22.374Z,97401.38
2022-10-18T06:19:54.116Z,97407.84
2022-10-18T06:21:25.841Z,97409.09
2022-10-18T06:22:57.555Z,97405.97
2022-10-18T06:24:30.636Z,97409.91
2022-10-18T06:26:03.183Z,97413.97
2022-10-18T06:27:35.264Z,97408.03
2022-10-18T06:29:07.166Z,97410.31
2022-10-18T06:30:38.973Z,97404.44
2022-10-18T06:32:10.702Z,97409.41
2022-10-18T06:33:42.429Z,97406.84
2022-10-18T06:35:14.170Z,97415.66
2022-10-18T06:36:45.870Z,97405.72
2022-10-18T06:38:17.678Z,97410.63
2022-10-18T06:39:50.952Z,97416.44
2022-10-18T06:41:22.751Z,97419.31
2022-10-18T06:43:05.791Z,97413.84
2022-10-18T06:44:42.468Z,97409.63
2022-10-18T06:46:14.211Z,97408.53
2022-10-18T06:47:45.965Z,97405.66
2022-10-18T06:49:19.205Z,97412.84
2022-10-18T06:50:55.294Z,97415.88
2022-10-18T06:52:28.251Z,97426.81
2022-10-18T06:54:16.734Z,97431.22
2022-10-18T06:55:51.322Z,97426.31
2022-10-18T06:57:23.205Z,97427.41
2022-10-18T06:59:31.874Z,97432.44
2022-10-18T07:02:01.189Z,97440.34
2022-10-18T07:04:10.406Z,97451.91
2022-10-18T07:06:42.236Z,97465.75
2022-10-18T07:08:32.502Z,97455.09
2022-10-18T07:10:23.669Z,97447.50
2022-10-18T07:11:57.217Z,97455.00
2022-10-18T07:14:07.370Z,97464.25
2022-10-18T07:15:39.193Z,97454.66
2022-10-18T07:17:15.131Z,97457.09
2022-10-18T07:18:48.351Z,97451.53
2022-10-18T07:20:20.111Z,97455.78
2022-10-18T07:21:51.921Z,97453.56
2022-10-18T07:23:24.038Z,97453.03
2022-10-18T07:25:16.663Z,97451.44
2022-10-18T07:26:48.522Z,97458.13
2022-10-18T07:28:21.766Z,97456.03
2022-10-18T07:29:53.561Z,97445.84
2022-10-18T07:31:25.495Z,97451.91
2022-10-18T07:32:57.456Z,97451.34
2022-10-18T07:34:29.341Z,97449.47
2022-10-18T07:36:01.705Z,97440.53
2022-10-18T07:37:33.668Z,97451.81
2022-10-18T07:39:05.748Z,97447.22
2022-10-18T07:40:37.776Z,97443.88
2022-10-18T07:42:09.567Z,97443.31
2022-10-18T07:43:44.005Z,97437.28
2022-10-18T07:45:15.919Z,97443.53
2022-10-18T07:46:47.698Z,97441.34
2022-10-18T07:48:19.550Z,97432.97
2022-10-18T07:49:51.559Z,97433.28
2022-10-18T07:51:23.509Z,97444.47
2022-10-18T07:52:55.491Z,97440.66
2022-10-18T07:54:27.279Z,97442.75
2022-10-18T07:55:59.193Z,97438.97
2022-10-18T07:57:31.732Z,97442.22
2022-10-18T07:59:05.223Z,97442.41
2022-10-18T08:00:37.130Z,97438.81
2022-10-18T08:02:09.482Z,97439.75
2022-10-18T08:03:41.572Z,97441.66
2022-10-18T08:05:13.454Z,97439.50
2022-10-18T08:06:47.962Z,97442.31
2022-10-18T08:08:20.054Z,97444.19
2022-10-18T08:09:51.957Z,97440.63
2022-10-18T08:11:25.198Z,97443.97
2022-10-18T08:13:00.187Z,97451.56
2022-10-18T08:14:33.517Z,97448.56
2022-10-18T08:16:06.464Z,97453.00
2022-10-18T08:17:38.307Z,97454.03
2022-10-18T08:19:11.229Z,97453.25
2022-10-18T08:20:43.574Z,97449.56
2022-10-18T08:22:15.529Z,97448.22
2022-10-18T08:23:47.558Z,97461.59
2022-10-18T08:25:21.371Z,97454.13
2022-10-18T08:26:53.281Z,97461.63
2022-10-18T08:28:25.419Z,97466.31
2022-10-18T08:30:00.020Z,97465.97
2022-10-18T08:31:32.010Z,97463.06
2022-10-18T08:33:03.891Z,97468.78
2022-10-18T08:34:41.766Z,97470.81
2022-10-18T08:36:15.023Z,97465.88
2022-10-18T08:37:47.314Z,97467.34
2022-10-18T08:39:19.214Z,97474.56
2022-10-18T08:40:51.185Z,97470.44
2022-10-18T08:42:39.689Z,97464.19
2022-10-18T08:44:14.096Z,97467.75
2022-10-18T08:45:47.576Z,97469.06
2022-10-18T08:47:20.376Z,97464.38
2022-10-18T08:48:54.587Z,97461.50
2022-10-18T08:50:27.908Z,97465.06
2022-10-18T08:51:59.783Z,97460.03
2022-10-18T08:53:36.190Z,97466.88
2022-10-18T08:55:12.558Z,97470.09
2022-10-18T08:56:46.744Z,97472.13
2022-10-18T08:58:19.989Z,97464.31
2022-10-18T08:59:53.545Z,97460.78
2022-10-18T09:01:29.179Z,97459.22
2022-10-18T09:03:10.279Z,97458.81
2022-10-18T09:04:47.143Z,97451.78
2022-10-18T09:06:22.748Z,97454.13
2022-10-18T09:08:03.531Z,97454.81
2022-10-18T09:09:38.162Z,97448.31
2022-10-18T09:11:21.826Z,97460.03
2022-10-18T09:13:06.484Z,97452.88
2022-10-18T09:15:15.381Z,97445.16
2022-10-18T09:16:50.698Z,97448.72
2022-10-18T09:18:37.276Z,97449.78
2022-10-18T09:20:16.483Z,97453.44
2022-10-18T09:21:51.153Z,97453.88
2022-10-18T09:23:27.006Z,97465.84
2022-10-18T09:25:02.342Z,97458.94
2022-10-18T09:26:38.135Z,97465.59
2022-10-18T09:28:15.436Z,97458.22
2022-10-18T09:29:54.258Z,97453.81
2022-10-18T09:31:28.216Z,97451.78
2022-10-18T09:33:05.403Z,97452.38
2022-10-18T09:34:38.611Z,97452.09
2022-10-18T09:36:11.333Z,97450.53
2022-10-18T09:37:43.092Z,97446.22
2022-10-18T09:39:15.473Z,97439.13
2022-10-18T09:40:51.128Z,97445.28
2022-10-18T09:42:26.713Z,97440.66
2022-10-18T09:43:59.078Z,97428.88
2022-10-18T09:45:31.977Z,97432.09
2022-10-18T09:47:06.433Z,97437.09
2022-10-18T09:48:43.186Z,97431.78
2022-10-18T09:50:18.014Z,97435.03
2022-10-18T09:51:50.157Z,97434.06
2022-10-18T09:53:25.310Z,97427.50
2022-10-18T09:54:58.129Z,97423.41
2022-10-18T09:56:30.215Z,97422.31
2022-10-18T09:58:02.731Z,97436.47
2022-10-18T09:59:36.427Z,97426.41
2022-10-18T10:01:08.407Z,97434.47
2022-10-18T10:02:40.241Z,97445.31
2022-10-18T10:04:15.415Z,97439.59
2022-10-18T10:05:47.098Z,97441.75
2022-10-18T10:07:19.527Z,97438.84
2022-10-18T10:08:54.792Z,97441.63
2022-10-18T10:10:27.194Z,97440.69
2022-10-18T10:11:59.035Z,97438.09
2022-10-18T10:13:31.198Z,97437.38
2022-10-18T10:15:12.185Z,97441.28
2022-10-18T10:16:54.222Z,97437.19
2022-10-18T10:18:26.469Z,97446.34
2022-10-18T10:20:02.090Z,97446.19
2022-10-18T10:21:33.788Z,97443.63
2022-10-18T10:23:07.136Z,97441.50
2022-10-18T10:24:47.711Z,97442.16
2022-10-18T10:26:22.599Z,97439.31
2022-10-18T10:27:54.425Z,97432.22
2022-10-18T10:29:56.658Z,97422.28
2022-10-18T10:31:29.086Z,97426.72
2022-10-18T10:33:00.721Z,97425.22
2022-10-18T10:34:32.495Z,97415.44
2022-10-18T10:36:07.123Z,97415.78
2022-10-18T10:37:38.976Z,97411.53
2022-10-18T10:39:12.275Z,97421.84
2022-10-18T10:40:46.465Z,97425.09
2022-10-18T10:42:18.129Z,97417.44
2022-10-18T10:43:50.318Z,97420.19
2022-10-18T10:45:22.305Z,97419.28
2022-10-18T10:46:55.118Z,97424.25
2022-10-18T10:48:29.909Z,97424.31
2022-10-18T10:50:09.588Z,97426.75
2022-10-18T10:51:43.619Z,97427.41
2022-10-18T10:53:32.708Z,97424.34
2022-10-18T10:55:11.391Z,97412.25
2022-10-18T10:56:56.734Z,97413.16
2022-10-18T10:58:29.379Z,97416.09
2022-10-18T11:00:01.078Z,97404.34
2022-10-18T11:01:33.050Z,97412.47
2022-10-18T11:03:27.275Z,97408.75
2022-10-18T11:05:16.638Z,97404.44
2022-10-18T11:06:56.486Z,97402.69
2022-10-18T11:08:29.620Z,97403.84
2022-10-18T11:10:02.390Z,97401.75
2022-10-18T11:11:39.905Z,97398.63
2022-10-18T11:13:23.447Z,97398.72
2022-10-18T11:14:59.541Z,97391.88
2022-10-18T11:16:32.973Z,97387.66
2022-10-18T11:18:09.386Z,97389.81
2022-10-18T11:19:48.948Z,97389.25
2022-10-18T11:21:23.120Z,97387.81
2022-10-18T11:23:03.502Z,97382.13
2022-10-18T11:24:35.526Z,97377.81
2022-10-18T11:26:31.003Z,97376.25
2022-10-18T11:28:04.262Z,97376.31
2022-10-18T11:29:43.689Z,97369.81
2022-10-18T11:31:17.659Z,97371.25
2022-10-18T11:32:52.501Z,97379.84
2022-10-18T11:34:49.409Z,97371.13
2022-10-18T11:38:10.794Z,97370.28
2022-10-18T11:39:48.779Z,97370.75
2022-10-18T11:41:28.411Z,97370.38
2022-10-18T11:43:03.379Z,97371.41
2022-10-18T11:44:37.402Z,97370.69
2022-10-18T11:46:12.072Z,97370.84
2022-10-18T11:47:49.091Z,97364.69
2022-10-18T11:49:46.037Z,97367.66
2022-10-18T11:51:29.683Z,97355.25
2022-10-18T11:53:16.514Z,97354.66
2022-10-18T11:55:01.073Z,97355.81
2022-10-18T11:56:38.295Z,97352.97
2022-10-18T11:58:18.518Z,97349.53
2022-10-18T11:59:54.146Z,97343.94
2022-10-18T12:01:28.749Z,97337.00
2022-10-18T12:03:12.428Z,97345.38
2022-10-18T12:05:05.123Z,97345.66
2022-10-18T12:06:38.866Z,97341.03
2022-10-18T12:08:13.432Z,97343.22
2022-10-18T12:09:45.900Z,97337.63
2022-10-18T12:11:19.630Z,97335.16
2022-10-18T12:12:52.356Z,97339.47
2022-10-18T12:14:25.928Z,97335.47
2022-10-18T12:15:57.573Z,97329.94
2022-10-18T12:17:47.542Z,97329.88
2022-10-18T12:19:26.212Z,97330.78
2022-10-18T12:20:58.834Z,97330.84
2022-10-18T12:22:34.713Z,97331.53
2022-10-18T12:24:09.180Z,97321.59
2022-10-18T12:25:42.142Z,97333.25
2022-10-18T12:27:15.123Z,97321.66
2022-10-18T12:28:51.580Z,97331.75
2022-10-18T12:30:27.184Z,97333.28
2022-10-18T12:31:59.504Z,97332.09
2022-10-18T12:33:36.345Z,97336.72
2022-10-18T12:35:11.250Z,97322.81
2022-10-18T12:37:11.078Z,97327.66
2022-10-18T12:38:43.756Z,97335.75
2022-10-18T12:40:21.125Z,97332.28
2022-10-18T12:41:53.287Z,97333.44
2022-10-18T12:43:25.573Z,97331.94
2022-10-18T12:45:04.064Z,97319.22
2022-10-18T12:46:45.092Z,97321.94
2022-10-18T12:48:33.163Z,97321.59
2022-10-18T12:50:22.636Z,97323.16
2022-10-18T12:51:54.775Z,97315.38
2022-10-18T12:53:26.931Z,97315.03
2022-10-18T12:55:04.478Z,97326.16
2022-10-18T12:56:41.717Z,97321.56
2022-10-18T12:58:27.904Z,97325.34
2022-10-18T12:59:59.507Z,97322.88
2022-10-18T13:01:40.463Z,97316.97
2022-10-18T13:04:00.606Z,97307.97
2022-10-18T13:05:56.099Z,97311.16
2022-10-18T13:07:40.975Z,97311.81
2022-10-18T13:09:17.710Z,97297.25
2022-10-18T13:10:49.481Z,97301.59
2022-10-18T13:12:54.046Z,97297.84
2022-10-18T13:15:07.075Z,97298.72
2022-10-18T13:16:46.157Z,97289.88
2022-10-18T13:18:19.519Z,97303.94
2022-10-18T13:20:20.473Z,97298.72
2022-10-18T13:21:50.346Z,97295.09
2022-10-18T13:23:32.732Z,97303.41
2022-10-18T13:25:13.303Z,97295.00
2022-10-18T13:26:58.218Z,97291.63
2022-10-18T13:28:51.814Z,97296.13
2022-10-18T13:30:39.599Z,97292.00
2022-10-18T13:32:17.946Z,97292.41
2022-10-18T13:33:49.668Z,97295.25
2022-10-18T13:35:44.668Z,97285.22
2022-10-18T13:37:20.718Z,97283.13
2022-10-18T13:39:02.058Z,97295.94
2022-10-18T13:40:33.693Z,97287.25
2022-10-18T13:42:30.721Z,97285.59
2022-10-18T13:44:25.329Z,97288.94
2022-10-18T13:45:57.154Z,97286.34
2022-10-18T13:47:36.240Z,97274.72
2022-10-18T13:49:20.849Z,97274.50
2022-10-18T13:50:52.494Z,97277.13
2022-10-18T13:52:26.429Z,97280.13
2022-10-18T13:54:00.298Z,97274.53
2022-10-18T13:55:42.558Z,97275.53
2022-10-18T13:57:20.298Z,97269.06
2022-10-18T13:59:13.645Z,97277.09
2022-10-18T14:00:52.559Z,97277.50
2022-10-18T14:02:52.321Z,97272.72
2022-10-18T14:04:38.955Z,97271.84
2022-10-18T14:06:11.647Z,97272.75
2022-10-18T14:07:43.336Z,97272.06
2022-10-18T14:09:26.212Z,97273.09
2022-10-18T14:11:14.161Z,97281.38
2022-10-18T14:12:47.802Z,97271.53
2022-10-18T14:14:23.110Z,97277.22
2022-10-18T14:15:58.624Z,97277.94
2022-10-18T14:17:34.165Z,97267.28
2022-10-18T14:19:12.026Z,97273.53
2022-10-18T14:21:01.582Z,97267.91
2022-10-18T14:22:38.377Z,97272.09
2022-10-18T14:24:18.940Z,97274.09
2022-10-18T14:25:50.588Z,97280.53
2022-10-18T14:27:22.922Z,97276.66
2022-10-18T14:29:05.151Z,97278.97
2022-10-18T14:30:36.872Z,97278.97
2022-10-18T14:32:10.965Z,97274.72
2022-10-18T14:33:43.401Z,97277.81
2022-10-18T14:35:34.082Z,97274.31
2022-10-18T14:37:05.718Z,97265.03
2022-10-18T14:38:38.433Z,97271.13
2022-10-18T14:40:28.497Z,97261.16
2022-10-18T14:42:00.650Z,97261.16
2022-10-18T14:43:32.296Z,97263.47
2022-10-18T14:45:17.698Z,97267.28
2022-10-18T14:46:50.452Z,97264.09
2022-10-18T14:48:23.667Z,97266.75
2022-10-18T14:49:57.786Z,97261.41
2022-10-18T14:51:32.233Z,97262.09
2022-10-18T14:53:07.128Z,97267.44
2022-10-18T14:54:38.857Z,97268.97
2022-10-18T14:56:22.403Z,97274.03
2022-10-18T14:57:54.103Z,97274.50
2022-10-18T14:59:26.901Z,97270.25
2022-10-18T15:00:58.569Z,97274.19
2022-10-18T15:02:31.011Z,97278.06
2022-10-18T15:04:06.145Z,97282.38
2022-10-18T15:05:37.840Z,97277.41
2022-10-18T15:07:16.174Z,97280.44
2022-10-18T15:08:51.276Z,97282.75
2022-10-18T15:10:23.797Z,97274.59
2022-10-18T15:11:57.727Z,97270.72
2022-10-18T15:13:30.018Z,97272.59
2022-10-18T15:15:01.843Z,97268.28
2022-10-18T15:16:33.521Z,97269.47
2022-10-18T15:18:06.514Z,97268.03
2022-10-18T15:19:41.829Z,97266.47
2022-10-18T15:21:23.235Z,97264.09
2022-10-18T15:22:54.949Z,97264.88
2022-10-18T15:24:30.136Z,97266.81
2022-10-18T15:26:03.249Z,97273.06
2022-10-18T15:27:36.215Z,97267.63
2022-10-18T15:29:16.358Z,97265.31
2022-10-18T15:30:47.973Z,97269.97
2022-10-18T15:32:21.583Z,97266.44
2022-10-18T15:33:53.718Z,97269.56
2022-10-18T15:35:29.061Z,97268.00
2022-10-18T15:37:00.857Z,97265.25
2022-10-18T15:38:32.738Z,97261.00
2022-10-18T15:40:31.597Z,97253.25
2022-10-18T15:42:03.495Z,97254.03
2022-10-18T15:43:39.427Z,97254.78
2022-10-18T15:45:28.029Z,97265.53
2022-10-18T15:47:10.292Z,97257.84
2022-10-18T15:48:42.071Z,97263.19
2022-10-18T15:50:16.982Z,97262.41
2022-10-18T15:51:50.424Z,97260.47
2022-10-18T15:53:43.789Z,97261.22
2022-10-18T15:55:47.742Z,97257.38
2022-10-18T15:57:19.339Z,97264.72
2022-10-18T15:58:51.391Z,97255.44
2022-10-18T16:00:22.980Z,97263.53
2022-10-18T16:01:54.790Z,97260.78
2022-10-18T16:03:26.563Z,97262.75
2022-10-18T16:04:58.855Z,97259.22
2022-10-18T16:06:30.510Z,97258.06
2022-10-18T16:08:03.532Z,97252.97
2022-10-18T16:09:35.200Z,97252.53
2022-10-18T16:11:07.139Z,97254.47
2022-10-18T16:12:38.907Z,97249.81
2022-10-18T16:14:11.030Z,97254.44
2022-10-18T16:15:42.829Z,97254.03
2022-10-18T16:17:16.960Z,97259.78
2022-10-18T16:18:48.754Z,97261.72
2022-10-18T16:20:21.397Z,97254.25
2022-10-18T16:21:53.664Z,97250.03
2022-10-18T16:23:28.489Z,97252.75
2022-10-18T16:25:00.111Z,97250.41
2022-10-18T16:26:31.799Z,97255.78
2022-10-18T16:28:04.117Z,97260.38
2022-10-18T16:29:35.765Z,97255.69
2022-10-18T16:31:07.757Z,97256.81
2022-10-18T16:32:40.413Z,97264.78
2022-10-18T16:34:12.153Z,97268.63
2022-10-18T16:35:43.952Z,97267.44
2022-10-18T16:37:15.590Z,97259.69
2022-10-18T16:38:48.716Z,97257.44
2022-10-18T16:40:23.288Z,97257.19
2022-10-18T16:41:55.273Z,97259.44
2022-10-18T16:43:26.945Z,97264.25
2022-10-18T16:44:58.647Z,97261.91
2022-10-18T16:46:31.161Z,97261.41
2022-10-18T16:48:02.918Z,97257.59
2022-10-18T16:49:34.834Z,97266.84
2022-10-18T16:51:06.719Z,97261.81
2022-10-18T16:52:38.369Z,97266.75
2022-10-18T16:54:11.471Z,97272.88
2022-10-18T16:55:43.150Z,97269.69
2022-10-18T16:57:15.795Z,97273.13
2022-10-18T16:58:47.479Z,97280.06
2022-10-18T17:00:20.927Z,97281.91
2022-10-18T17:01:52.715Z,97276.94
2022-10-18T17:03:24.638Z,97281.25
2022-10-18T17:04:56.284Z,97289.59
2022-10-18T17:06:29.280Z,97286.06
2022-10-18T17:08:01.074Z,97283.69
2022-10-18T17:09:35.885Z,97284.25
2022-10-18T17:11:08.991Z,97287.56
2022-10-18T17:12:40.745Z,97288.06
2022-10-18T17:14:12.591Z,97290.06
2022-10-18T17:15:44.337Z,97290.25
2022-10-18T17:17:16.027Z,97281.41
2022-10-18T17:18:47.684Z,97284.16
2022-10-18T17:20:21.149Z,97285.66
2022-10-18T17:21:52.835Z,97293.38
2022-10-18T17:23:24.516Z,97290.25
2022-10-18T17:24:57.693Z,97289.50
2022-10-18T17:26:30.130Z,97292.00
2022-10-18T17:28:02.157Z,97289.63
2022-10-18T17:29:33.843Z,97295.38
2022-10-18T17:31:06.516Z,97297.94
2022-10-18T17:32:38.289Z,97303.16
2022-10-18T17:34:09.928Z,97301.19
2022-10-18T17:35:41.700Z,97302.50
2022-10-18T17:37:13.856Z,97300.06
2022-10-18T17:38:47.964Z,97307.91
2022-10-18T17:40:23.792Z,97309.59
2022-10-18T17:41:55.684Z,97306.00
2022-10-18T17:43:27.429Z,97304.97
2022-10-18T17:45:01.334Z,97307.66
2022-10-18T17:46:32.956Z,97306.94
2022-10-18T17:48:04.645Z,97307.88
2022-10-18T17:49:36.296Z,97310.03
2022-10-18T17:51:08.755Z,97310.28
2022-10-18T17:54:12.897Z,97307.00
2022-10-18T17:55:45.895Z,97298.50
2022-10-18T17:57:17.549Z,97309.75
2022-10-18T17:58:50.639Z,97319.16
2022-10-18T18:00:24.497Z,97307.78
2022-10-18T18:01:56.115Z,97308.88
2022-10-18T18:03:27.849Z,97310.75
2022-10-18T18:04:59.635Z,97312.31
2022-10-18T18:06:33.456Z,97311.47
2022-10-18T18:08:05.446Z,97308.47
2022-10-18T18:09:37.219Z,97309.91
2022-10-18T18:11:10.359Z,97314.72
2022-10-18T18:12:43.902Z,97309.16
2022-10-18T18:14:16.081Z,97310.19
2022-10-18T18:15:47.715Z,97313.22
2022-10-18T18:17:28.625Z,97318.25
2022-10-18T18:19:09.522Z,97317.69
2022-10-18T18:20:41.661Z,97318.53
2022-10-18T18:22:14.041Z,97313.59
2022-10-18T18:23:45.687Z,97323.78
2022-10-18T18:25:17.488Z,97320.53
2022-10-18T18:26:50.587Z,97320.91
2022-10-18T18:28:22.260Z,97318.72
2022-10-18T18:29:53.984Z,97320.47
2022-10-18T18:31:25.736Z,97318.06
2022-10-18T18:32:57.448Z,97317.63
2022-10-18T18:34:29.084Z,97309.88
2022-10-18T18:36:00.754Z,97304.78
2022-10-18T18:37:32.519Z,97308.63
2022-10-18T18:39:05.603Z,97302.09
2022-10-18T18:40:37.328Z,97302.44
2022-10-18T18:42:10.875Z,97306.47
2022-10-18T18:43:43.621Z,97308.31
2022-10-18T18:45:15.382Z,97318.59